sensor_id;sensor_type;location;lat;lon;timestamp;pressure;altitude;pressure_sealevel;temperature;humidity
72124;BME280;63818;37.134;-8.548;2023-02-19T00:01:09;102048.3;;;17.0;74.8
72124;BME280;63818;37.134;-8.548;2023-02-19T00:06:00;102056.1;;;17.0;74.6
72124;BME280;63818;37.134;-8.548;2023-02-19T00:10:48;102051.3;;;17.0;74.4
72124;BME280;63818;37.134;-8.548;2023-02-19T00:15:37;102048.4;;;16.9;74.1
72124;BME280;63818;37.134;-8.548;2023-02-19T00:20:26;102050.7;;;16.9;74.3
72124;BME280;63818;37.134;-8.548;2023-02-19T00:25:12;102042.8;;;16.9;74.2
72124;BME280;63818;37.134;-8.548;2023-02-19T00:30:01;102039.5;;;16.9;74.6
72124;BME280;63818;37.134;-8.548;2023-02-19T00:34:54;102033.9;;;16.8;74.8
72124;BME280;63818;37.134;-8.548;2023-02-19T00:39:40;102028.4;;;16.8;74.5
72124;BME280;63818;37.134;-8.548;2023-02-19T00:44:31;102025.1;;;16.8;74.7
72124;BME280;63818;37.134;-8.548;2023-02-19T00:49:20;102018.5;;;16.8;74.9
72124;BME280;63818;37.134;-8.548;2023-02-19T00:54:07;102009.9;;;16.7;74.9
72124;BME280;63818;37.134;-8.548;2023-02-19T00:58:53;102006.9;;;16.7;75.1
72124;BME280;63818;37.134;-8.548;2023-02-19T01:03:44;102001.1;;;16.7;75.1
72124;BME280;63818;37.134;-8.548;2023-02-19T01:08:31;101999.0;;;16.7;75.0
72124;BME280;63818;37.134;-8.548;2023-02-19T01:13:18;101993.6;;;16.7;75.2
72124;BME280;63818;37.134;-8.548;2023-02-19T01:18:09;101996.9;;;16.6;75.2
72124;BME280;63818;37.134;-8.548;2023-02-19T01:22:58;101995.4;;;16.6;75.0
72124;BME280;63818;37.134;-8.548;2023-02-19T01:27:44;101990.0;;;16.6;75.0
72124;BME280;63818;37.134;-8.548;2023-02-19T01:32:50;101991.5;;;16.5;75.2
72124;BME280;63818;37.134;-8.548;2023-02-19T01:37:36;101983.7;;;16.5;75.2
72124;BME280;63818;37.134;-8.548;2023-02-19T01:42:23;101979.0;;;16.5;75.1
72124;BME280;63818;37.134;-8.548;2023-02-19T01:47:09;101975.0;;;16.5;75.2
72124;BME280;63818;37.134;-8.548;2023-02-19T01:51:58;101961.5;;;16.5;75.4
72124;BME280;63818;37.134;-8.548;2023-02-19T01:56:49;101961.0;;;16.5;75.2
72124;BME280;63818;37.134;-8.548;2023-02-19T02:01:36;101954.0;;;16.5;75.1
72124;BME280;63818;37.134;-8.548;2023-02-19T02:06:25;101955.1;;;16.5;75.0
72124;BME280;63818;37.134;-8.548;2023-02-19T02:16:18;101943.6;;;16.4;75.2
72124;BME280;63818;37.134;-8.548;2023-02-19T02:21:40;101938.5;;;16.4;75.5
72124;BME280;63818;37.134;-8.548;2023-02-19T02:26:43;101936.9;;;16.4;75.3
72124;BME280;63818;37.134;-8.548;2023-02-19T02:31:34;101929.9;;;16.4;75.5
72124;BME280;63818;37.134;-8.548;2023-02-19T02:36:26;101928.3;;;16.4;75.9
72124;BME280;63818;37.134;-8.548;2023-02-19T02:41:14;101927.0;;;16.3;76.0
72124;BME280;63818;37.134;-8.548;2023-02-19T02:46:01;101918.4;;;16.3;76.8
72124;BME280;63818;37.134;-8.548;2023-02-19T02:50:49;101920.1;;;16.4;76.9
72124;BME280;63818;37.134;-8.548;2023-02-19T02:55:44;101917.7;;;16.4;77.1
72124;BME280;63818;37.134;-8.548;2023-02-19T03:00:35;101914.7;;;16.4;77.5
72124;BME280;63818;37.134;-8.548;2023-02-19T03:05:23;101919.3;;;16.4;77.6
72124;BME280;63818;37.134;-8.548;2023-02-19T03:10:15;101918.0;;;16.3;77.6
72124;BME280;63818;37.134;-8.548;2023-02-19T03:15:07;101922.8;;;16.3;77.9
72124;BME280;63818;37.134;-8.548;2023-02-19T03:19:57;101932.9;;;16.3;77.7
72124;BME280;63818;37.134;-8.548;2023-02-19T03:24:50;101916.9;;;16.3;77.5
72124;BME280;63818;37.134;-8.548;2023-02-19T03:29:40;101916.7;;;16.2;78.0
72124;BME280;63818;37.134;-8.548;2023-02-19T03:34:34;101912.8;;;16.2;77.9
72124;BME280;63818;37.134;-8.548;2023-02-19T03:39:22;101917.0;;;16.2;77.8
72124;BME280;63818;37.134;-8.548;2023-02-19T03:44:16;101912.3;;;16.2;77.9
72124;BME280;63818;37.134;-8.548;2023-02-19T03:49:14;101907.1;;;16.2;77.8
72124;BME280;63818;37.134;-8.548;2023-02-19T03:54:14;101897.4;;;16.1;77.8
72124;BME280;63818;37.134;-8.548;2023-02-19T03:59:10;101908.4;;;16.1;77.9
72124;BME280;63818;37.134;-8.548;2023-02-19T04:04:03;101902.8;;;16.1;78.0
72124;BME280;63818;37.134;-8.548;2023-02-19T04:08:54;101898.2;;;16.1;78.1
72124;BME280;63818;37.134;-8.548;2023-02-19T04:13:44;101902.0;;;16.1;78.1
72124;BME280;63818;37.134;-8.548;2023-02-19T04:18:35;101907.5;;;16.1;77.7
72124;BME280;63818;37.134;-8.548;2023-02-19T04:23:58;101899.9;;;16.0;77.5
72124;BME280;63818;37.134;-8.548;2023-02-19T04:28:46;101903.7;;;15.9;77.5
72124;BME280;63818;37.134;-8.548;2023-02-19T04:33:37;101895.9;;;15.9;77.9
72124;BME280;63818;37.134;-8.548;2023-02-19T04:38:23;101906.0;;;15.9;77.8
72124;BME280;63818;37.134;-8.548;2023-02-19T04:43:09;101899.6;;;15.9;78.0
72124;BME280;63818;37.134;-8.548;2023-02-19T04:48:46;101893.7;;;15.9;77.8
72124;BME280;63818;37.134;-8.548;2023-02-19T04:53:33;101886.3;;;15.9;77.9
72124;BME280;63818;37.134;-8.548;2023-02-19T04:58:20;101892.4;;;15.8;77.5
72124;BME280;63818;37.134;-8.548;2023-02-19T05:03:08;101893.8;;;15.8;78.1
72124;BME280;63818;37.134;-8.548;2023-02-19T05:07:55;101897.5;;;15.8;78.3
72124;BME280;63818;37.134;-8.548;2023-02-19T05:12:44;101901.5;;;15.8;78.2
72124;BME280;63818;37.134;-8.548;2023-02-19T05:17:31;101886.3;;;15.8;78.2
72124;BME280;63818;37.134;-8.548;2023-02-19T05:22:17;101889.0;;;15.8;78.0
72124;BME280;63818;37.134;-8.548;2023-02-19T05:27:03;101897.6;;;15.7;78.1
72124;BME280;63818;37.134;-8.548;2023-02-19T05:31:49;101895.4;;;15.7;78.0
72124;BME280;63818;37.134;-8.548;2023-02-19T05:36:36;101892.8;;;15.7;78.0
72124;BME280;63818;37.134;-8.548;2023-02-19T05:41:25;101892.0;;;15.7;77.7
72124;BME280;63818;37.134;-8.548;2023-02-19T05:46:15;101900.6;;;15.7;77.8
72124;BME280;63818;37.134;-8.548;2023-02-19T05:51:07;101894.5;;;15.6;77.4
72124;BME280;63818;37.134;-8.548;2023-02-19T05:56:26;101890.4;;;15.6;77.5
72124;BME280;63818;37.134;-8.548;2023-02-19T06:01:16;101889.3;;;15.6;77.6
72124;BME280;63818;37.134;-8.548;2023-02-19T06:06:08;101884.1;;;15.6;77.5
72124;BME280;63818;37.134;-8.548;2023-02-19T06:10:56;101893.5;;;15.5;77.4
72124;BME280;63818;37.134;-8.548;2023-02-19T06:15:42;101894.1;;;15.5;77.7
72124;BME280;63818;37.134;-8.548;2023-02-19T06:20:32;101897.0;;;15.5;77.5
72124;BME280;63818;37.134;-8.548;2023-02-19T06:25:20;101894.8;;;15.5;77.6
72124;BME280;63818;37.134;-8.548;2023-02-19T06:30:07;101888.3;;;15.6;77.6
72124;BME280;63818;37.134;-8.548;2023-02-19T06:34:54;101888.9;;;15.5;77.2
72124;BME280;63818;37.134;-8.548;2023-02-19T06:39:40;101885.4;;;15.5;77.0
72124;BME280;63818;37.134;-8.548;2023-02-19T06:44:28;101892.4;;;15.5;77.1
72124;BME280;63818;37.134;-8.548;2023-02-19T06:49:15;101885.7;;;15.5;77.1
72124;BME280;63818;37.134;-8.548;2023-02-19T06:54:01;101882.1;;;15.4;77.3
72124;BME280;63818;37.134;-8.548;2023-02-19T06:58:52;101875.1;;;15.4;77.3
72124;BME280;63818;37.134;-8.548;2023-02-19T07:03:40;101871.1;;;15.4;77.3
72124;BME280;63818;37.134;-8.548;2023-02-19T07:08:27;101870.3;;;15.4;77.5
72124;BME280;63818;37.134;-8.548;2023-02-19T07:18:04;101868.7;;;15.4;77.1
72124;BME280;63818;37.134;-8.548;2023-02-19T07:22:52;101866.8;;;15.4;76.8
72124;BME280;63818;37.134;-8.548;2023-02-19T07:27:39;101872.8;;;15.3;76.9
72124;BME280;63818;37.134;-8.548;2023-02-19T07:32:25;101873.8;;;15.3;76.6
72124;BME280;63818;37.134;-8.548;2023-02-19T07:37:22;101874.0;;;15.3;76.5
72124;BME280;63818;37.134;-8.548;2023-02-19T07:42:11;101874.0;;;15.3;76.0
72124;BME280;63818;37.134;-8.548;2023-02-19T07:46:57;101879.2;;;15.3;75.9
72124;BME280;63818;37.134;-8.548;2023-02-19T07:51:43;101878.4;;;15.3;75.6
72124;BME280;63818;37.134;-8.548;2023-02-19T07:56:29;101876.8;;;15.3;75.7
72124;BME280;63818;37.134;-8.548;2023-02-19T08:01:17;101884.3;;;15.3;75.7
72124;BME280;63818;37.134;-8.548;2023-02-19T08:06:03;101878.3;;;15.3;75.1
72124;BME280;63818;37.134;-8.548;2023-02-19T08:10:53;101888.0;;;15.3;75.2
72124;BME280;63818;37.134;-8.548;2023-02-19T08:15:41;101889.9;;;15.3;75.0
72124;BME280;63818;37.134;-8.548;2023-02-19T08:20:28;101896.9;;;15.3;74.9
72124;BME280;63818;37.134;-8.548;2023-02-19T08:25:16;101906.9;;;15.3;75.2
72124;BME280;63818;37.134;-8.548;2023-02-19T08:30:05;101905.8;;;15.4;75.7
72124;BME280;63818;37.134;-8.548;2023-02-19T08:34:51;101906.3;;;15.4;75.5
72124;BME280;63818;37.134;-8.548;2023-02-19T08:44:32;101922.8;;;15.4;75.7
72124;BME280;63818;37.134;-8.548;2023-02-19T08:49:19;101930.4;;;15.4;75.8
72124;BME280;63818;37.134;-8.548;2023-02-19T08:54:06;101933.7;;;15.4;75.8
72124;BME280;63818;37.134;-8.548;2023-02-19T08:58:52;101944.5;;;15.4;76.2
72124;BME280;63818;37.134;-8.548;2023-02-19T09:03:41;101943.6;;;15.4;76.6
72124;BME280;63818;37.134;-8.548;2023-02-19T09:08:27;101953.6;;;15.4;76.2
72124;BME280;63818;37.134;-8.548;2023-02-19T09:13:16;101961.6;;;15.4;76.5
72124;BME280;63818;37.134;-8.548;2023-02-19T09:18:03;101965.6;;;15.4;76.2
72124;BME280;63818;37.134;-8.548;2023-02-19T09:22:49;101961.3;;;15.5;76.0
72124;BME280;63818;37.134;-8.548;2023-02-19T09:27:40;101964.9;;;15.5;75.6
72124;BME280;63818;37.134;-8.548;2023-02-19T09:32:28;101968.8;;;15.5;75.3
72124;BME280;63818;37.134;-8.548;2023-02-19T09:43:18;101972.3;;;15.6;74.8
72124;BME280;63818;37.134;-8.548;2023-02-19T09:48:07;101985.4;;;15.7;74.1
72124;BME280;63818;37.134;-8.548;2023-02-19T09:52:57;101988.9;;;15.7;74.0
72124;BME280;63818;37.134;-8.548;2023-02-19T09:57:49;101985.9;;;15.7;74.1
72124;BME280;63818;37.134;-8.548;2023-02-19T10:02:36;101982.9;;;15.7;73.3
72124;BME280;63818;37.134;-8.548;2023-02-19T10:07:25;101991.8;;;15.7;72.9
72124;BME280;63818;37.134;-8.548;2023-02-19T10:12:17;101988.5;;;15.8;72.5
72124;BME280;63818;37.134;-8.548;2023-02-19T10:17:07;101982.9;;;15.8;72.3
72124;BME280;63818;37.134;-8.548;2023-02-19T10:21:58;101976.8;;;15.9;72.0
72124;BME280;63818;37.134;-8.548;2023-02-19T10:26:44;101977.3;;;16.0;71.8
72124;BME280;63818;37.134;-8.548;2023-02-19T10:31:33;101988.9;;;16.1;71.2
72124;BME280;63818;37.134;-8.548;2023-02-19T10:36:24;101987.4;;;16.2;70.7
72124;BME280;63818;37.134;-8.548;2023-02-19T10:41:18;101976.9;;;16.2;70.5
72124;BME280;63818;37.134;-8.548;2023-02-19T10:46:16;101969.7;;;16.3;69.9
72124;BME280;63818;37.134;-8.548;2023-02-19T10:51:05;101974.2;;;16.3;69.7
72124;BME280;63818;37.134;-8.548;2023-02-19T10:56:08;101967.8;;;16.4;69.0
72124;BME280;63818;37.134;-8.548;2023-02-19T11:01:13;101976.3;;;16.5;68.7
72124;BME280;63818;37.134;-8.548;2023-02-19T11:06:02;101965.4;;;16.5;68.5
72124;BME280;63818;37.134;-8.548;2023-02-19T11:10:49;101971.8;;;16.4;68.0
72124;BME280;63818;37.134;-8.548;2023-02-19T11:15:36;101959.7;;;16.4;67.9
72124;BME280;63818;37.134;-8.548;2023-02-19T11:20:25;101954.3;;;16.4;68.0
72124;BME280;63818;37.134;-8.548;2023-02-19T11:25:18;101945.0;;;16.4;68.0
72124;BME280;63818;37.134;-8.548;2023-02-19T11:30:31;101941.0;;;16.5;68.0
72124;BME280;63818;37.134;-8.548;2023-02-19T11:35:20;101936.4;;;16.5;68.2
72124;BME280;63818;37.134;-8.548;2023-02-19T11:40:15;101925.1;;;16.6;67.8
72124;BME280;63818;37.134;-8.548;2023-02-19T11:45:16;101918.4;;;16.7;67.6
72124;BME280;63818;37.134;-8.548;2023-02-19T11:50:14;101914.6;;;16.7;67.3
72124;BME280;63818;37.134;-8.548;2023-02-19T11:55:15;101892.6;;;16.7;67.1
72124;BME280;63818;37.134;-8.548;2023-02-19T12:00:17;101886.3;;;16.7;66.3
72124;BME280;63818;37.134;-8.548;2023-02-19T12:05:29;101875.2;;;16.7;66.5
72124;BME280;63818;37.134;-8.548;2023-02-19T12:10:20;101870.8;;;16.7;66.3
72124;BME280;63818;37.134;-8.548;2023-02-19T12:15:17;101868.8;;;16.7;66.4
72124;BME280;63818;37.134;-8.548;2023-02-19T12:20:12;101870.7;;;16.6;66.6
72124;BME280;63818;37.134;-8.548;2023-02-19T12:25:27;101859.4;;;16.7;66.9
72124;BME280;63818;37.134;-8.548;2023-02-19T12:30:24;101857.0;;;16.8;67.1
72124;BME280;63818;37.134;-8.548;2023-02-19T12:35:40;101865.7;;;16.9;67.0
72124;BME280;63818;37.134;-8.548;2023-02-19T12:40:36;101874.5;;;16.9;66.7
72124;BME280;63818;37.134;-8.548;2023-02-19T12:45:30;101856.8;;;16.9;66.4
72124;BME280;63818;37.134;-8.548;2023-02-19T12:50:21;101858.5;;;17.0;66.0
72124;BME280;63818;37.134;-8.548;2023-02-19T12:55:20;101845.4;;;17.0;65.7
72124;BME280;63818;37.134;-8.548;2023-02-19T13:00:19;101835.0;;;17.0;65.7
72124;BME280;63818;37.134;-8.548;2023-02-19T13:05:17;101831.5;;;17.0;65.7
72124;BME280;63818;37.134;-8.548;2023-02-19T13:10:21;101825.6;;;17.0;66.0
72124;BME280;63818;37.134;-8.548;2023-02-19T13:15:13;101823.9;;;16.9;66.1
72124;BME280;63818;37.134;-8.548;2023-02-19T13:20:12;101817.3;;;16.9;65.2
72124;BME280;63818;37.134;-8.548;2023-02-19T13:25:00;101812.7;;;16.9;65.9
72124;BME280;63818;37.134;-8.548;2023-02-19T13:29:58;101799.8;;;16.8;66.3
72124;BME280;63818;37.134;-8.548;2023-02-19T13:34:53;101782.4;;;16.9;66.5
72124;BME280;63818;37.134;-8.548;2023-02-19T13:39:48;101782.9;;;16.9;66.9
72124;BME280;63818;37.134;-8.548;2023-02-19T13:44:37;101780.3;;;16.9;66.8
72124;BME280;63818;37.134;-8.548;2023-02-19T13:49:36;101772.5;;;17.0;66.3
72124;BME280;63818;37.134;-8.548;2023-02-19T13:54:26;101764.3;;;17.1;65.5
72124;BME280;63818;37.134;-8.548;2023-02-19T13:59:37;101753.5;;;17.2;65.8
72124;BME280;63818;37.134;-8.548;2023-02-19T14:04:29;101743.9;;;17.3;65.3
72124;BME280;63818;37.134;-8.548;2023-02-19T14:09:47;101726.8;;;17.4;65.1
72124;BME280;63818;37.134;-8.548;2023-02-19T14:14:36;101721.6;;;17.5;64.8
72124;BME280;63818;37.134;-8.548;2023-02-19T14:19:46;101724.7;;;17.5;63.9
72124;BME280;63818;37.134;-8.548;2023-02-19T14:29:24;101707.6;;;17.6;63.1
72124;BME280;63818;37.134;-8.548;2023-02-19T14:34:16;101707.1;;;17.6;62.5
72124;BME280;63818;37.134;-8.548;2023-02-19T14:39:10;101704.4;;;17.6;60.8
72124;BME280;63818;37.134;-8.548;2023-02-19T14:44:01;101692.1;;;17.6;59.5
72124;BME280;63818;37.134;-8.548;2023-02-19T14:48:48;101703.0;;;17.8;62.2
72124;BME280;63818;37.134;-8.548;2023-02-19T14:53:38;101696.0;;;17.8;62.0
72124;BME280;63818;37.134;-8.548;2023-02-19T14:58:31;101681.5;;;17.8;59.4
72124;BME280;63818;37.134;-8.548;2023-02-19T15:03:28;101681.2;;;17.9;59.2
72124;BME280;63818;37.134;-8.548;2023-02-19T15:08:18;101682.7;;;17.8;59.5
72124;BME280;63818;37.134;-8.548;2023-02-19T15:13:09;101685.6;;;18.0;59.4
72124;BME280;63818;37.134;-8.548;2023-02-19T15:18:02;101674.7;;;18.0;59.7
72124;BME280;63818;37.134;-8.548;2023-02-19T15:22:50;101679.6;;;17.8;60.0
72124;BME280;63818;37.134;-8.548;2023-02-19T15:27:37;101672.0;;;17.8;60.3
72124;BME280;63818;37.134;-8.548;2023-02-19T15:32:28;101667.8;;;17.7;61.1
72124;BME280;63818;37.134;-8.548;2023-02-19T15:37:14;101674.2;;;17.6;61.7
72124;BME280;63818;37.134;-8.548;2023-02-19T15:42:03;101675.3;;;17.6;62.0
72124;BME280;63818;37.134;-8.548;2023-02-19T15:47:21;101677.2;;;17.6;62.5
72124;BME280;63818;37.134;-8.548;2023-02-19T15:52:10;101671.1;;;17.6;62.7
72124;BME280;63818;37.134;-8.548;2023-02-19T15:57:04;101673.3;;;17.8;63.0
72124;BME280;63818;37.134;-8.548;2023-02-19T16:01:54;101669.1;;;17.9;62.7
72124;BME280;63818;37.134;-8.548;2023-02-19T16:06:54;101665.5;;;18.0;62.4
72124;BME280;63818;37.134;-8.548;2023-02-19T16:11:47;101662.9;;;18.1;62.6
72124;BME280;63818;37.134;-8.548;2023-02-19T16:16:39;101672.3;;;18.2;62.3
72124;BME280;63818;37.134;-8.548;2023-02-19T16:21:27;101660.7;;;18.2;62.3
72124;BME280;63818;37.134;-8.548;2023-02-19T16:26:14;101666.0;;;18.0;62.4
72124;BME280;63818;37.134;-8.548;2023-02-19T16:31:03;101662.9;;;17.9;62.2
72124;BME280;63818;37.134;-8.548;2023-02-19T16:35:52;101655.9;;;17.9;62.5
72124;BME280;63818;37.134;-8.548;2023-02-19T16:42:15;101660.4;;;17.9;62.3
72124;BME280;63818;37.134;-8.548;2023-02-19T16:47:09;101661.0;;;17.9;63.0
72124;BME280;63818;37.134;-8.548;2023-02-19T16:52:00;101668.7;;;18.0;63.1
72124;BME280;63818;37.134;-8.548;2023-02-19T16:56:50;101660.6;;;18.2;62.9
72124;BME280;63818;37.134;-8.548;2023-02-19T17:01:36;101658.6;;;18.3;63.2
72124;BME280;63818;37.134;-8.548;2023-02-19T17:06:25;101654.3;;;18.2;63.4
72124;BME280;63818;37.134;-8.548;2023-02-19T17:11:14;101664.9;;;18.2;63.5
72124;BME280;63818;37.134;-8.548;2023-02-19T17:15:59;101667.2;;;18.1;63.9
72124;BME280;63818;37.134;-8.548;2023-02-19T17:20:50;101668.0;;;18.0;63.9
72124;BME280;63818;37.134;-8.548;2023-02-19T17:25:39;101675.9;;;17.9;64.3
72124;BME280;63818;37.134;-8.548;2023-02-19T17:30:31;101679.0;;;17.8;64.6
72124;BME280;63818;37.134;-8.548;2023-02-19T17:35:18;101677.3;;;17.7;64.8
72124;BME280;63818;37.134;-8.548;2023-02-19T17:40:16;101677.8;;;17.7;65.5
72124;BME280;63818;37.134;-8.548;2023-02-19T17:45:08;101673.7;;;17.6;65.7
72124;BME280;63818;37.134;-8.548;2023-02-19T17:49:54;101673.9;;;17.6;65.9
72124;BME280;63818;37.134;-8.548;2023-02-19T17:54:40;101675.2;;;17.5;66.2
72124;BME280;63818;37.134;-8.548;2023-02-19T17:59:27;101677.8;;;17.5;66.7
72124;BME280;63818;37.134;-8.548;2023-02-19T18:04:17;101692.4;;;17.4;66.7
72124;BME280;63818;37.134;-8.548;2023-02-19T18:09:03;101691.4;;;17.4;67.1
72124;BME280;63818;37.134;-8.548;2023-02-19T18:13:55;101702.6;;;17.4;67.0
72124;BME280;63818;37.134;-8.548;2023-02-19T18:18:42;101697.9;;;17.3;67.1
72124;BME280;63818;37.134;-8.548;2023-02-19T18:23:34;101709.7;;;17.3;67.5
72124;BME280;63818;37.134;-8.548;2023-02-19T18:28:20;101713.9;;;17.3;67.5
72124;BME280;63818;37.134;-8.548;2023-02-19T18:33:07;101715.3;;;17.2;67.8
72124;BME280;63818;37.134;-8.548;2023-02-19T18:37:54;101724.9;;;17.2;68.6
72124;BME280;63818;37.134;-8.548;2023-02-19T18:42:40;101730.7;;;17.2;68.3
72124;BME280;63818;37.134;-8.548;2023-02-19T18:47:31;101733.7;;;17.2;68.4
72124;BME280;63818;37.134;-8.548;2023-02-19T18:52:21;101736.0;;;17.2;68.9
72124;BME280;63818;37.134;-8.548;2023-02-19T18:57:07;101736.6;;;17.1;68.6
72124;BME280;63818;37.134;-8.548;2023-02-19T19:01:54;101747.0;;;17.1;69.0
72124;BME280;63818;37.134;-8.548;2023-02-19T19:06:40;101748.8;;;17.1;69.1
72124;BME280;63818;37.134;-8.548;2023-02-19T19:11:30;101751.8;;;17.0;69.6
72124;BME280;63818;37.134;-8.548;2023-02-19T19:16:17;101746.7;;;17.0;69.4
72124;BME280;63818;37.134;-8.548;2023-02-19T19:21:05;101752.5;;;17.0;69.4
72124;BME280;63818;37.134;-8.548;2023-02-19T19:25:53;101754.7;;;17.0;69.4
72124;BME280;63818;37.134;-8.548;2023-02-19T19:30:41;101749.0;;;17.0;69.6
72124;BME280;63818;37.134;-8.548;2023-02-19T19:35:30;101755.0;;;17.0;69.0
72124;BME280;63818;37.134;-8.548;2023-02-19T19:40:17;101760.5;;;17.0;69.0
72124;BME280;63818;37.134;-8.548;2023-02-19T19:45:05;101758.2;;;17.0;68.6
72124;BME280;63818;37.134;-8.548;2023-02-19T19:49:52;101746.2;;;17.0;68.2
72124;BME280;63818;37.134;-8.548;2023-02-19T19:54:39;101742.6;;;17.0;68.2
72124;BME280;63818;37.134;-8.548;2023-02-19T19:59:25;101750.6;;;16.9;68.2
72124;BME280;63818;37.134;-8.548;2023-02-19T20:04:15;101753.3;;;16.9;68.4
72124;BME280;63818;37.134;-8.548;2023-02-19T20:09:02;101751.2;;;16.9;68.2
72124;BME280;63818;37.134;-8.548;2023-02-19T20:13:51;101753.5;;;16.9;68.2
72124;BME280;63818;37.134;-8.548;2023-02-19T20:18:38;101750.4;;;16.9;68.4
72124;BME280;63818;37.134;-8.548;2023-02-19T20:23:24;101756.7;;;16.9;68.1
72124;BME280;63818;37.134;-8.548;2023-02-19T20:28:11;101754.0;;;16.9;68.1
72124;BME280;63818;37.134;-8.548;2023-02-19T20:32:59;101768.5;;;16.9;68.6
72124;BME280;63818;37.134;-8.548;2023-02-19T20:37:46;101762.9;;;16.8;68.6
72124;BME280;63818;37.134;-8.548;2023-02-19T20:42:35;101757.7;;;16.8;68.7
72124;BME280;63818;37.134;-8.548;2023-02-19T20:47:21;101765.6;;;16.7;69.5
72124;BME280;63818;37.134;-8.548;2023-02-19T20:52:09;101770.8;;;16.8;70.4
72124;BME280;63818;37.134;-8.548;2023-02-19T20:56:57;101758.3;;;16.8;71.1
72124;BME280;63818;37.134;-8.548;2023-02-19T21:06:31;101766.5;;;16.7;72.1
72124;BME280;63818;37.134;-8.548;2023-02-19T21:11:17;101768.7;;;16.6;72.8
72124;BME280;63818;37.134;-8.548;2023-02-19T21:16:04;101766.3;;;16.6;72.9
72124;BME280;63818;37.134;-8.548;2023-02-19T21:20:50;101766.2;;;16.6;73.4
72124;BME280;63818;37.134;-8.548;2023-02-19T21:25:36;101770.6;;;16.5;73.5
72124;BME280;63818;37.134;-8.548;2023-02-19T21:30:23;101776.4;;;16.5;73.3
72124;BME280;63818;37.134;-8.548;2023-02-19T21:35:09;101766.5;;;16.5;73.5
72124;BME280;63818;37.134;-8.548;2023-02-19T21:39:55;101765.0;;;16.5;73.5
72124;BME280;63818;37.134;-8.548;2023-02-19T21:44:44;101769.2;;;16.5;73.3
72124;BME280;63818;37.134;-8.548;2023-02-19T21:49:31;101765.5;;;16.5;73.8
72124;BME280;63818;37.134;-8.548;2023-02-19T21:54:20;101773.0;;;16.4;74.1
72124;BME280;63818;37.134;-8.548;2023-02-19T21:59:07;101762.2;;;16.4;74.0
72124;BME280;63818;37.134;-8.548;2023-02-19T22:03:53;101749.6;;;16.4;73.6
72124;BME280;63818;37.134;-8.548;2023-02-19T22:08:39;101747.5;;;16.3;73.4
72124;BME280;63818;37.134;-8.548;2023-02-19T22:13:26;101741.3;;;16.3;72.9
72124;BME280;63818;37.134;-8.548;2023-02-19T22:18:13;101720.4;;;16.3;73.1
72124;BME280;63818;37.134;-8.548;2023-02-19T22:22:59;101731.1;;;16.3;72.4
72124;BME280;63818;37.134;-8.548;2023-02-19T22:27:46;101717.5;;;16.3;72.2
72124;BME280;63818;37.134;-8.548;2023-02-19T22:32:33;101718.0;;;16.3;71.8
72124;BME280;63818;37.134;-8.548;2023-02-19T22:37:19;101707.1;;;16.3;71.4
72124;BME280;63818;37.134;-8.548;2023-02-19T22:42:06;101694.7;;;16.3;71.3
72124;BME280;63818;37.134;-8.548;2023-02-19T22:46:53;101702.3;;;16.3;70.9
72124;BME280;63818;37.134;-8.548;2023-02-19T22:51:45;101689.4;;;16.2;70.4
72124;BME280;63818;37.134;-8.548;2023-02-19T22:56:35;101696.8;;;16.2;70.6
72124;BME280;63818;37.134;-8.548;2023-02-19T23:01:22;101706.5;;;16.2;70.4
72124;BME280;63818;37.134;-8.548;2023-02-19T23:06:08;101695.5;;;16.2;71.0
72124;BME280;63818;37.134;-8.548;2023-02-19T23:10:55;101707.8;;;16.2;70.9
72124;BME280;63818;37.134;-8.548;2023-02-19T23:15:45;101681.8;;;16.2;71.8
72124;BME280;63818;37.134;-8.548;2023-02-19T23:20:32;101667.3;;;16.1;72.5
72124;BME280;63818;37.134;-8.548;2023-02-19T23:25:20;101674.9;;;16.1;72.8
72124;BME280;63818;37.134;-8.548;2023-02-19T23:30:07;101671.4;;;16.1;72.8
72124;BME280;63818;37.134;-8.548;2023-02-19T23:34:54;101673.7;;;16.1;72.3
72124;BME280;63818;37.134;-8.548;2023-02-19T23:39:42;101689.0;;;16.0;71.8
72124;BME280;63818;37.134;-8.548;2023-02-19T23:44:32;101689.6;;;16.0;71.2
72124;BME280;63818;37.134;-8.548;2023-02-19T23:49:18;101692.5;;;16.0;71.7
72124;BME280;63818;37.134;-8.548;2023-02-19T23:54:07;101695.2;;;16.0;71.5
72124;BME280;63818;37.134;-8.548;2023-02-19T23:58:54;101701.0;;;16.0;71.3
